Frank T. Stegbauer — WDE5944 — position and weather

sailwx.info

Track history (hours):
 
Tides and Currents Weather Stations Pressure Air Temp Water Temp Dewpoint Dewpoint Depression Visibility Wind Speed Wind Dir Waves Ship Positions

Frank T. Stegbauer

Owner: SOUTHERN TOWING COMPANY LLC., Memphis, TN. More information available from US FCC via Universal Licensing System and Coast Guard Vessel Documentation Center.

Last reported at 2017-Aug-28 12:09 UTC. Time now 2017-Sep-25 15:33 UTC.
Position N 38°54' W 090°13'.
Warning: this ship's position is 28 days out of date.

Length 35 m; draft 3 m.

Type: Tug. MMSI: 367373640.

Date/timePositionNaut miles runAvg speedWind from/ knotsBaromVisibWave heightAir tempDewpointWater temp
2017-Aug-28 12:09N 38°54' W 090°13'0 2.9
2017-Aug-28 12:00N 38°54' W 090°13'  
2017-Aug-23 16:43N 38°54' W 090°31'1 4.8
2017-Aug-23 16:30N 38°55' W 090°30'2 4.6
2017-Aug-23 16:00N 38°57' W 090°29'2 4.5
2017-Aug-23 15:30N 38°58' W 090°26'2 3.1
2017-Aug-23 15:00N 38°58' W 090°24'0 0.0
2017-Aug-23 14:00N 38°58' W 090°24'2 4.0
2017-Aug-23 13:30N 38°57' W 090°22'3 5.0
2017-Aug-23 12:59N 38°55' W 090°19'  
Track history (hours):
 
Tides and Currents Weather Stations Pressure Air Temp Water Temp Dewpoint Dewpoint Depression Visibility Wind Speed Wind Dir Waves Ship Positions

Frank T. Stegbauer

Owner: SOUTHERN TOWING COMPANY LLC., Memphis, TN. More information available from US FCC via Universal Licensing System and Coast Guard Vessel Documentation Center.

Last reported at 2017-Aug-28 12:09 UTC. Time now 2017-Sep-25 15:33 UTC.
Position N 38°54' W 090°13'.
Warning: this ship's position is 28 days out of date.

Length 35 m; draft 3 m.

Type: Tug. MMSI: 367373640.

Date/timePositionNaut miles runAvg speedWind from/ knotsBaromVisibWave heightAir tempDewpointWater temp
2017-Aug-28 12:09N 38°54' W 090°13'0 2.9
2017-Aug-28 12:00N 38°54' W 090°13'  
2017-Aug-23 16:43N 38°54' W 090°31'1 4.8
2017-Aug-23 16:30N 38°55' W 090°30'2 4.6
2017-Aug-23 16:00N 38°57' W 090°29'2 4.5
2017-Aug-23 15:30N 38°58' W 090°26'2 3.1
2017-Aug-23 15:00N 38°58' W 090°24'0 0.0
2017-Aug-23 14:00N 38°58' W 090°24'2 4.0
2017-Aug-23 13:30N 38°57' W 090°22'3 5.0
2017-Aug-23 12:59N 38°55' W 090°19'  

Dump ship's entire track history